Saint Germain, Wisconsin
Current Conditions -  °F | °C
As of 11:50 PM on Monday 26 Jan 2015 (Local Time) from KEGV Reporting Station
Overcast Overcast  
Wind Chill: -7°   Ceiling: 1300
Heat Index: -7°   Visibility: 10mi
Dew Point: -9°   Wind: 0mph
Humidity: 86%   Direction: NA
Pressure: 29.91"   Gusts: NA
Location:  45.9°N, 89.49°W
Report Text: KEGV 270550Z AUTO 00000KT 10SM OVC013 M07/M09 A2991 RMK AO2 T10701090 11068 21071 410621141
Loading
Personal Weather Stations






























Interactive Weather Map New forecast layout! Learn more

10-Day Weather Forecast

Advertisements
Track Severe Weather on mobile